Kezdőlap
METAR-TAF:

METAR-TAF

Repülőterek :

Fairfield Municipal Airport

Fairfield, Iowa, Amerikai Egyesült Államok

földrajzi szélesség: 41-03N, földrajzi hosszúság: 091-59W, magasság: 244 m

Jelenlegi meteorológiai megfigyelések

A jelentés 5 perccel ezelõtt készült, 06:35 UTC
Nyugat-északnyugati szél 18 kt széllökések: 25 kt
Hőmérséklet 0°C
Páratartalom 93%
Légköri nyomás 1016 hPa
Látótávolság: 16.1 km
Szórványos felhőzet 1500 lábon
Borult 2300 lábon

METAR: KFFL 180635Z AUTO 30018G25KT 10SM SCT015 OVC023 M00/M01 A3000 RMK A01

Idő: 00:40 (06:40 UTC)


TAF: hiányzik

Meteorológiai megfigyelések és előrejelzések több, mint 4000 repülőtéren (METAR és TAF jelentéseket).

A térképen piros és sárga pontok jelzik az elérhető meteorológiai állomásokat.

Mozgassa az egeret a pont fölött, hogy megjelenjen az állomás neve.

Azután kattintson az időjárási megfigyelések és előrejelzések megtekintéséhez.

A térkép megváltoztatása: kattintson a fekete keresztel jelölt zöld gombra ráközelítéshez, a vonallal jelölt zöld gombra távolításhoz, vagy a zöld nyilakra a szomszédos térképek eléréséhez.


METAR-TAF: